createdAt,value
2023-02-19T00:01:33.357Z,9.00
2023-02-19T00:04:03.578Z,8.30
2023-02-19T00:06:32.958Z,9.25
2023-02-19T00:09:01.602Z,8.93
2023-02-19T00:11:30.827Z,8.85
2023-02-19T00:13:59.328Z,9.07
2023-02-19T00:16:29.148Z,8.80
2023-02-19T00:18:57.869Z,8.48
2023-02-19T00:21:25.448Z,9.23
2023-02-19T00:23:54.262Z,8.75
2023-02-19T00:26:21.578Z,8.90
2023-02-19T00:28:49.911Z,8.52
2023-02-19T00:31:22.832Z,8.95
2023-02-19T00:33:52.014Z,8.52
2023-02-19T00:36:18.754Z,9.30
2023-02-19T00:38:46.206Z,8.95
2023-02-19T00:41:20.214Z,8.63
2023-02-19T00:43:54.226Z,8.55
2023-02-19T00:46:23.318Z,7.93
2023-02-19T00:48:50.562Z,8.23
2023-02-19T00:51:17.415Z,7.72
2023-02-19T00:53:44.436Z,8.13
2023-02-19T00:56:11.689Z,7.32
2023-02-19T00:58:38.623Z,7.95
2023-02-19T01:01:06.686Z,7.35
2023-02-19T01:03:34.918Z,7.40
2023-02-19T01:06:02.605Z,7.40
2023-02-19T01:08:31.141Z,7.63
2023-02-19T01:10:58.338Z,7.07
2023-02-19T01:13:25.437Z,7.38
2023-02-19T01:15:52.478Z,7.47
2023-02-19T01:18:19.080Z,7.05
2023-02-19T01:20:46.279Z,7.32
2023-02-19T01:23:13.998Z,7.45
2023-02-19T01:25:42.263Z,7.63
2023-02-19T01:28:11.016Z,7.32
2023-02-19T01:30:38.956Z,7.10
2023-02-19T01:33:06.982Z,6.82
2023-02-19T01:35:34.052Z,7.43
2023-02-19T01:38:00.667Z,7.78
2023-02-19T01:40:27.303Z,7.28
2023-02-19T01:42:54.098Z,7.00
2023-02-19T01:45:23.389Z,6.90
2023-02-19T01:47:58.941Z,6.82
2023-02-19T01:50:28.838Z,6.28
2023-02-19T01:52:55.771Z,7.28
2023-02-19T01:55:23.996Z,7.28
2023-02-19T01:57:55.475Z,6.85
2023-02-19T02:00:24.409Z,6.63
2023-02-19T02:02:54.929Z,6.65
2023-02-19T02:05:45.095Z,6.75
2023-02-19T02:08:32.109Z,6.90
2023-02-19T02:10:58.848Z,6.03
2023-02-19T02:13:25.536Z,6.35
2023-02-19T02:15:59.745Z,6.70
2023-02-19T02:18:41.201Z,6.25
2023-02-19T02:22:05.487Z,6.40
2023-02-19T02:24:49.389Z,5.97
2023-02-19T02:27:30.999Z,6.65
2023-02-19T02:30:15.710Z,6.50
2023-02-19T02:33:00.504Z,6.15
2023-02-19T02:35:32.914Z,6.50
2023-02-19T02:38:05.122Z,6.50
2023-02-19T02:40:31.923Z,6.32
2023-02-19T02:43:00.151Z,6.75
2023-02-19T02:45:35.520Z,6.50
2023-02-19T02:48:15.022Z,7.60
2023-02-19T02:50:51.190Z,6.85
2023-02-19T02:54:05.482Z,6.97
2023-02-19T02:56:33.509Z,6.40
2023-02-19T02:59:02.565Z,6.85
2023-02-19T03:02:00.913Z,6.60
2023-02-19T03:05:16.332Z,6.18
2023-02-19T03:07:58.061Z,7.88
2023-02-19T03:10:30.901Z,8.18
2023-02-19T03:13:18.908Z,9.13
2023-02-19T03:16:09.813Z,7.57
2023-02-19T03:18:58.653Z,7.80
2023-02-19T03:21:27.558Z,7.93
2023-02-19T03:24:15.759Z,7.50
2023-02-19T03:26:45.670Z,7.95
2023-02-19T03:29:28.976Z,7.97
2023-02-19T03:32:00.445Z,7.50
2023-02-19T03:34:35.254Z,7.78
2023-02-19T03:37:16.078Z,7.15
2023-02-19T03:39:46.463Z,7.57
2023-02-19T03:42:17.950Z,7.57
2023-02-19T03:45:02.576Z,8.07
2023-02-19T03:47:34.401Z,7.68
2023-02-19T03:50:08.865Z,7.22
2023-02-19T03:53:00.494Z,6.78
2023-02-19T03:55:38.936Z,6.78
2023-02-19T03:58:12.339Z,6.45
2023-02-19T04:00:52.352Z,7.25
2023-02-19T04:03:56.412Z,7.53
2023-02-19T04:06:27.633Z,8.43
2023-02-19T04:08:58.819Z,7.97
2023-02-19T04:11:27.635Z,8.32
2023-02-19T04:14:12.823Z,8.63
2023-02-19T04:16:45.602Z,8.77
2023-02-19T04:19:15.942Z,8.68
2023-02-19T04:21:44.553Z,8.50
2023-02-19T04:24:15.111Z,8.55
2023-02-19T04:26:43.233Z,8.45
2023-02-19T04:29:09.756Z,8.55
2023-02-19T04:31:37.103Z,8.52
2023-02-19T04:34:05.856Z,8.27
2023-02-19T04:36:33.180Z,8.85
2023-02-19T04:38:59.891Z,9.05
2023-02-19T04:41:26.586Z,7.13
2023-02-19T04:43:53.130Z,8.15
2023-02-19T04:46:19.905Z,8.50
2023-02-19T04:48:46.612Z,8.13
2023-02-19T04:51:13.400Z,8.30
2023-02-19T04:53:40.231Z,8.57
2023-02-19T04:56:15.283Z,8.55
2023-02-19T04:58:42.872Z,8.60
2023-02-19T05:01:10.556Z,8.32
2023-02-19T05:03:37.925Z,8.13
2023-02-19T05:06:06.662Z,7.78
2023-02-19T05:08:34.035Z,8.63
2023-02-19T05:11:02.856Z,7.55
2023-02-19T05:13:30.804Z,7.88
2023-02-19T05:16:00.431Z,7.70
2023-02-19T05:18:27.777Z,7.93
2023-02-19T05:20:54.466Z,8.07
2023-02-19T05:23:21.800Z,8.07
2023-02-19T05:25:48.489Z,8.95
2023-02-19T05:28:22.043Z,8.10
2023-02-19T05:30:51.204Z,8.43
2023-02-19T05:33:19.785Z,8.10
2023-02-19T05:35:48.727Z,8.60
2023-02-19T05:38:16.432Z,9.35
2023-02-19T05:40:43.992Z,9.02
2023-02-19T05:43:11.612Z,9.10
2023-02-19T05:45:38.352Z,9.60
2023-02-19T05:48:06.483Z,8.32
2023-02-19T05:50:35.658Z,9.52
2023-02-19T05:53:04.243Z,9.25
2023-02-19T05:55:35.274Z,8.25
2023-02-19T06:00:28.728Z,7.45
2023-02-19T06:02:55.401Z,8.27
2023-02-19T06:05:22.113Z,8.15
2023-02-19T06:07:51.700Z,8.30
2023-02-19T06:10:18.491Z,8.23
2023-02-19T06:12:45.504Z,8.25
2023-02-19T06:15:12.195Z,7.88
2023-02-19T06:17:38.928Z,7.93
2023-02-19T06:20:05.880Z,8.00
2023-02-19T06:22:32.538Z,8.50
2023-02-19T06:24:59.147Z,8.10
2023-02-19T06:27:25.874Z,8.82
2023-02-19T06:29:52.623Z,8.20
2023-02-19T06:32:21.065Z,8.82
2023-02-19T06:34:47.724Z,9.02
2023-02-19T06:37:15.712Z,9.02
2023-02-19T06:39:43.762Z,9.13
2023-02-19T06:42:10.377Z,9.20
2023-02-19T06:44:37.105Z,9.73
2023-02-19T06:47:03.762Z,9.00
2023-02-19T06:49:30.363Z,8.07
2023-02-19T06:51:57.078Z,8.90
2023-02-19T06:54:25.794Z,8.85
2023-02-19T06:56:52.639Z,8.60
2023-02-19T06:59:19.391Z,8.25
2023-02-19T07:01:46.386Z,8.38
2023-02-19T07:04:13.210Z,8.70
2023-02-19T07:06:40.382Z,7.78
2023-02-19T07:09:08.532Z,8.40
2023-02-19T07:11:36.675Z,8.48
2023-02-19T07:14:05.388Z,9.25
2023-02-19T07:16:32.176Z,9.27
2023-02-19T07:19:00.154Z,8.63
2023-02-19T07:21:27.640Z,8.45
2023-02-19T07:23:54.519Z,9.00
2023-02-19T07:26:21.764Z,7.80
2023-02-19T07:28:50.336Z,8.65
2023-02-19T07:31:19.073Z,9.10
2023-02-19T07:33:46.855Z,8.57
2023-02-19T07:36:14.820Z,8.55
2023-02-19T07:38:41.442Z,8.23
2023-02-19T07:41:08.593Z,8.25
2023-02-19T07:43:37.542Z,8.40
2023-02-19T07:46:06.146Z,7.85
2023-02-19T07:48:34.242Z,7.38
2023-02-19T07:51:03.684Z,7.32
2023-02-19T07:53:31.257Z,7.63
2023-02-19T07:56:03.084Z,7.65
2023-02-19T07:58:30.691Z,8.10
2023-02-19T08:00:57.820Z,8.43
2023-02-19T08:03:24.529Z,8.07
2023-02-19T08:05:51.616Z,7.80
2023-02-19T08:08:18.188Z,7.78
2023-02-19T08:11:03.326Z,8.55
2023-02-19T08:13:31.980Z,7.97
2023-02-19T08:16:17.095Z,7.97
2023-02-19T08:18:48.203Z,8.57
2023-02-19T08:21:18.403Z,7.80
2023-02-19T08:23:46.540Z,7.68
2023-02-19T08:26:13.486Z,8.35
2023-02-19T08:28:40.322Z,8.10
2023-02-19T08:31:08.704Z,7.63
2023-02-19T08:33:35.642Z,7.50
2023-02-19T08:36:07.845Z,8.15
2023-02-19T08:38:36.504Z,8.52
2023-02-19T08:41:14.237Z,8.98
2023-02-19T08:43:41.903Z,8.60
2023-02-19T08:46:10.436Z,7.43
2023-02-19T08:48:37.832Z,7.85
2023-02-19T08:51:08.538Z,6.82
2023-02-19T08:53:36.754Z,7.13
2023-02-19T08:56:12.505Z,4.97
2023-02-19T08:58:39.817Z,4.10
2023-02-19T09:01:11.530Z,3.47
2023-02-19T09:03:38.558Z,3.28
2023-02-19T09:06:05.568Z,2.70
2023-02-19T09:08:32.295Z,2.80
2023-02-19T09:11:04.786Z,2.70
2023-02-19T09:13:31.414Z,2.20
2023-02-19T09:15:58.242Z,2.20
2023-02-19T09:18:26.354Z,2.22
2023-02-19T09:20:52.993Z,1.98
2023-02-19T09:23:19.666Z,2.17
2023-02-19T09:25:46.561Z,1.85
2023-02-19T09:28:13.125Z,2.05
2023-02-19T09:30:39.864Z,2.17
2023-02-19T09:33:06.825Z,1.98
2023-02-19T09:35:33.502Z,1.75
2023-02-19T09:38:02.050Z,1.90
2023-02-19T09:40:30.626Z,2.35
2023-02-19T09:42:57.739Z,2.30
2023-02-19T09:45:26.201Z,2.13
2023-02-19T09:47:55.135Z,2.50
2023-02-19T09:50:26.204Z,2.00
2023-02-19T09:53:00.085Z,2.00
2023-02-19T09:55:39.200Z,2.13
2023-02-19T09:58:22.311Z,1.75
2023-02-19T10:00:50.851Z,2.20
2023-02-19T10:03:30.720Z,2.13
2023-02-19T10:06:00.084Z,2.60
2023-02-19T10:08:26.805Z,2.53
2023-02-19T10:10:54.907Z,1.77
2023-02-19T10:13:27.838Z,1.58
2023-02-19T10:15:57.083Z,1.55
2023-02-19T10:18:28.302Z,1.92
2023-02-19T10:20:56.696Z,1.98
2023-02-19T10:23:24.871Z,1.88
2023-02-19T10:25:59.095Z,1.77
2023-02-19T10:28:32.201Z,2.10
2023-02-19T10:31:01.446Z,1.92
2023-02-19T10:33:28.764Z,1.95
2023-02-19T10:36:06.205Z,2.10
2023-02-19T10:38:35.584Z,1.85
2023-02-19T10:41:05.774Z,1.65
2023-02-19T10:43:37.236Z,1.90
2023-02-19T10:46:19.236Z,1.83
2023-02-19T10:49:07.665Z,1.88
2023-02-19T10:51:42.252Z,1.90
2023-02-19T10:54:24.450Z,2.17
2023-02-19T10:56:51.130Z,2.10
2023-02-19T10:59:28.664Z,2.00
2023-02-19T11:01:57.565Z,1.80
2023-02-19T11:04:26.017Z,1.70
2023-02-19T11:06:52.988Z,1.65
2023-02-19T11:09:37.346Z,1.60
2023-02-19T11:12:05.851Z,2.45
2023-02-19T11:14:34.319Z,2.80
2023-02-19T11:17:06.787Z,2.72
2023-02-19T11:19:40.670Z,2.45
2023-02-19T11:22:21.300Z,2.50
2023-02-19T11:24:50.472Z,2.50
2023-02-19T11:27:23.456Z,3.00
2023-02-19T11:29:50.807Z,2.45
2023-02-19T11:32:20.198Z,2.80
2023-02-19T11:34:48.157Z,2.75
2023-02-19T11:37:17.042Z,2.72
2023-02-19T11:39:46.718Z,2.97
2023-02-19T11:42:29.828Z,2.60
2023-02-19T11:45:02.638Z,2.17
2023-02-19T11:47:56.156Z,2.03
2023-02-19T11:51:00.470Z,2.20
2023-02-19T11:53:37.409Z,2.53
2023-02-19T11:56:19.473Z,2.58
2023-02-19T11:59:00.842Z,2.75
2023-02-19T12:01:46.450Z,2.45
2023-02-19T12:04:50.762Z,2.13
2023-02-19T12:07:42.165Z,2.42
2023-02-19T12:10:17.632Z,2.28
2023-02-19T12:12:51.517Z,2.00
2023-02-19T12:15:38.237Z,1.95
2023-02-19T12:18:05.699Z,2.40
2023-02-19T12:20:48.517Z,2.05
2023-02-19T12:23:15.553Z,2.20
2023-02-19T12:25:51.217Z,2.35
2023-02-19T12:28:23.805Z,2.33
2023-02-19T12:30:50.365Z,1.90
2023-02-19T12:33:42.107Z,2.05
2023-02-19T12:36:19.024Z,2.35
2023-02-19T12:38:58.304Z,1.88
2023-02-19T12:41:29.882Z,2.15
2023-02-19T12:44:04.455Z,2.08
2023-02-19T12:46:43.228Z,2.33
2023-02-19T12:49:22.087Z,2.13
2023-02-19T12:51:50.909Z,1.70
2023-02-19T12:54:20.429Z,2.03
2023-02-19T12:57:06.722Z,2.40
2023-02-19T13:00:11.690Z,2.33
2023-02-19T13:03:04.794Z,2.47
2023-02-19T13:05:44.221Z,2.28
2023-02-19T13:08:29.748Z,2.20
2023-02-19T13:11:27.389Z,2.15
2023-02-19T13:14:03.698Z,2.22
2023-02-19T13:16:33.587Z,2.10
2023-02-19T13:19:02.442Z,2.22
2023-02-19T13:21:51.298Z,2.40
2023-02-19T13:24:37.043Z,1.90
2023-02-19T13:27:13.618Z,2.17
2023-02-19T13:30:05.369Z,1.85
2023-02-19T13:32:51.528Z,1.73
2023-02-19T13:35:33.368Z,1.98
2023-02-19T13:38:02.307Z,2.00
2023-02-19T13:40:35.545Z,1.75
2023-02-19T13:43:05.633Z,1.80
2023-02-19T13:45:41.697Z,2.10
2023-02-19T13:48:14.753Z,1.80
2023-02-19T13:50:42.571Z,1.70
2023-02-19T13:53:46.125Z,1.00
2023-02-19T13:56:36.457Z,0.90
2023-02-19T13:59:36.135Z,0.73
2023-02-19T14:02:02.718Z,0.63
2023-02-19T14:04:32.488Z,0.90
2023-02-19T14:07:05.246Z,0.80
2023-02-19T14:09:37.787Z,0.70
2023-02-19T14:12:06.438Z,0.80
2023-02-19T14:14:39.284Z,0.70
2023-02-19T14:17:08.903Z,0.68
2023-02-19T14:19:41.735Z,0.70
2023-02-19T14:22:58.146Z,0.77
2023-02-19T14:25:31.065Z,0.65
2023-02-19T14:28:02.999Z,0.75
2023-02-19T14:30:31.859Z,0.90
2023-02-19T14:33:10.177Z,1.08
2023-02-19T14:35:43.648Z,1.20
2023-02-19T14:38:36.361Z,1.80
2023-02-19T14:41:04.128Z,1.40
2023-02-19T14:43:31.630Z,1.50
2023-02-19T14:46:01.796Z,1.67
2023-02-19T14:48:35.722Z,1.30
2023-02-19T14:51:07.285Z,1.50
2023-02-19T14:53:38.727Z,1.45
2023-02-19T14:56:07.449Z,1.58
2023-02-19T14:58:34.209Z,1.23
2023-02-19T15:01:01.113Z,1.05
2023-02-19T15:03:33.559Z,1.02
2023-02-19T15:06:12.802Z,1.00
2023-02-19T15:08:45.237Z,1.00
2023-02-19T15:11:21.028Z,1.20
2023-02-19T15:13:54.116Z,1.10
2023-02-19T15:16:25.821Z,1.30
2023-02-19T15:18:54.423Z,1.02
2023-02-19T15:21:29.748Z,1.20
2023-02-19T15:23:59.637Z,0.90
2023-02-19T15:26:36.414Z,0.80
2023-02-19T15:29:24.511Z,0.70
2023-02-19T15:31:54.189Z,0.80
2023-02-19T15:34:28.612Z,0.75
2023-02-19T15:37:04.364Z,0.80
2023-02-19T15:39:38.037Z,0.73
2023-02-19T15:42:06.739Z,0.80
2023-02-19T15:44:38.971Z,1.00
2023-02-19T15:47:28.756Z,1.10
2023-02-19T15:50:03.799Z,0.90
2023-02-19T15:52:44.695Z,1.02
2023-02-19T15:55:37.234Z,1.00
2023-02-19T15:58:15.845Z,1.00
2023-02-19T16:00:45.174Z,1.20
2023-02-19T16:03:20.810Z,1.30
2023-02-19T16:06:05.689Z,1.20
2023-02-19T16:08:37.503Z,1.17
2023-02-19T16:11:07.473Z,1.20
2023-02-19T16:13:35.032Z,1.05
2023-02-19T16:16:27.884Z,1.48
2023-02-19T16:18:54.614Z,1.02
2023-02-19T16:21:23.846Z,1.10
2023-02-19T16:23:59.646Z,1.00
2023-02-19T16:26:26.520Z,1.00
2023-02-19T16:28:54.167Z,1.20
2023-02-19T16:31:23.775Z,1.40
2023-02-19T16:33:51.890Z,1.13
2023-02-19T16:36:41.560Z,1.17
2023-02-19T16:39:08.131Z,0.85
2023-02-19T16:41:53.643Z,1.23
2023-02-19T16:44:32.354Z,1.00
2023-02-19T16:47:04.980Z,1.00
2023-02-19T16:49:32.111Z,0.88
2023-02-19T16:52:04.393Z,1.00
2023-02-19T16:54:31.732Z,1.00
2023-02-19T16:56:58.456Z,1.20
2023-02-19T16:59:25.013Z,1.02
2023-02-19T17:01:51.845Z,1.00
2023-02-19T17:04:18.629Z,1.65
2023-02-19T17:06:45.680Z,1.15
2023-02-19T17:09:12.586Z,1.10
2023-02-19T17:11:39.698Z,1.02
2023-02-19T17:14:06.383Z,0.98
2023-02-19T17:16:40.577Z,1.20
2023-02-19T17:19:13.558Z,1.30
2023-02-19T17:21:40.404Z,0.85
2023-02-19T17:24:07.178Z,1.17
2023-02-19T17:26:34.088Z,1.02
2023-02-19T17:29:02.799Z,1.42
2023-02-19T17:31:29.524Z,1.08
2023-02-19T17:33:56.386Z,0.93
2023-02-19T17:36:27.156Z,1.10
2023-02-19T17:38:55.098Z,1.10
2023-02-19T17:41:21.842Z,0.93
2023-02-19T17:43:50.724Z,1.13
2023-02-19T17:46:18.793Z,1.27
2023-02-19T17:48:45.655Z,1.10
2023-02-19T17:51:12.799Z,1.00
2023-02-19T17:53:39.527Z,1.00
2023-02-19T17:56:06.594Z,1.17
2023-02-19T17:58:33.314Z,1.02
2023-02-19T18:00:59.941Z,1.27
2023-02-19T18:03:26.764Z,0.98
2023-02-19T18:05:53.454Z,1.20
2023-02-19T18:08:20.036Z,1.25
2023-02-19T18:10:46.843Z,1.08
2023-02-19T18:13:13.514Z,1.08
2023-02-19T18:15:40.054Z,1.40
2023-02-19T18:18:06.706Z,1.40
2023-02-19T18:20:33.511Z,1.10
2023-02-19T18:23:00.212Z,1.40
2023-02-19T18:25:26.961Z,1.10
2023-02-19T18:27:53.837Z,1.10
2023-02-19T18:30:22.831Z,1.30
2023-02-19T18:32:50.259Z,1.02
2023-02-19T18:35:18.852Z,1.10
2023-02-19T18:37:45.584Z,1.10
2023-02-19T18:40:12.694Z,1.15
2023-02-19T18:42:40.018Z,1.20
2023-02-19T18:45:07.026Z,1.30
2023-02-19T18:47:33.692Z,1.40
2023-02-19T18:50:00.374Z,1.25
2023-02-19T18:52:28.012Z,1.15
2023-02-19T18:54:57.257Z,1.20
2023-02-19T18:57:24.884Z,1.33
2023-02-19T18:59:51.724Z,1.27
2023-02-19T19:02:19.394Z,1.17
2023-02-19T19:04:51.090Z,1.60
2023-02-19T19:07:18.355Z,1.55
2023-02-19T19:09:45.055Z,1.40
2023-02-19T19:12:11.940Z,1.73
2023-02-19T19:14:38.549Z,1.50
2023-02-19T19:17:05.491Z,1.33
2023-02-19T19:19:32.272Z,1.30
2023-02-19T19:21:58.874Z,1.65
2023-02-19T19:24:25.661Z,1.42
2023-02-19T19:26:53.321Z,1.50
2023-02-19T19:29:22.172Z,1.30
2023-02-19T19:31:49.594Z,1.38
2023-02-19T19:34:17.376Z,1.52
2023-02-19T19:36:44.576Z,1.20
2023-02-19T19:39:11.997Z,1.25
2023-02-19T19:41:38.801Z,1.67
2023-02-19T19:44:07.076Z,1.48
2023-02-19T19:46:33.927Z,1.45
2023-02-19T19:49:01.094Z,1.92
2023-02-19T19:51:32.209Z,1.40
2023-02-19T19:53:58.805Z,1.55
2023-02-19T19:56:26.101Z,1.40
2023-02-19T19:58:52.710Z,1.38
2023-02-19T20:01:21.274Z,1.60
2023-02-19T20:03:48.336Z,1.45
2023-02-19T20:06:15.076Z,1.92
2023-02-19T20:08:41.655Z,1.77
2023-02-19T20:11:10.290Z,1.80
2023-02-19T20:13:37.417Z,2.10
2023-02-19T20:16:04.339Z,1.80
2023-02-19T20:18:31.093Z,2.00
2023-02-19T20:20:57.839Z,2.30
2023-02-19T20:23:26.152Z,2.53
2023-02-19T20:25:54.145Z,2.85
2023-02-19T20:28:20.791Z,2.40
2023-02-19T20:30:47.357Z,2.30
2023-02-19T20:33:14.081Z,2.67
2023-02-19T20:35:40.738Z,2.70
2023-02-19T20:38:07.383Z,2.03
2023-02-19T20:40:35.588Z,2.30
2023-02-19T20:43:03.099Z,1.92
2023-02-19T20:45:30.965Z,2.22
2023-02-19T20:47:57.741Z,2.15
2023-02-19T20:50:25.730Z,2.03
2023-02-19T20:52:55.878Z,1.98
2023-02-19T20:55:23.985Z,1.92
2023-02-19T20:57:50.754Z,1.65
2023-02-19T21:00:18.164Z,1.77
2023-02-19T21:02:47.007Z,1.67
2023-02-19T21:05:14.425Z,1.95
2023-02-19T21:07:40.986Z,2.08
2023-02-19T21:10:08.535Z,2.45
2023-02-19T21:12:36.504Z,2.00
2023-02-19T21:15:04.605Z,1.77
2023-02-19T21:17:31.342Z,1.63
2023-02-19T21:19:57.967Z,1.63
2023-02-19T21:22:24.511Z,1.63
2023-02-19T21:24:53.267Z,1.83
2023-02-19T21:27:20.500Z,1.50
2023-02-19T21:29:47.889Z,1.58
2023-02-19T21:32:14.692Z,1.52
2023-02-19T21:34:42.283Z,1.60
2023-02-19T21:37:08.838Z,1.65
2023-02-19T21:39:35.511Z,1.63
2023-02-19T21:42:03.900Z,1.70
2023-02-19T21:44:30.480Z,1.67
2023-02-19T21:46:57.382Z,1.75
2023-02-19T21:49:24.319Z,1.50
2023-02-19T21:51:51.012Z,1.65
2023-02-19T21:54:24.846Z,1.70
2023-02-19T21:56:52.814Z,1.80
2023-02-19T21:59:20.441Z,1.63
2023-02-19T22:01:47.717Z,1.65
2023-02-19T22:04:17.004Z,1.73
2023-02-19T22:06:43.869Z,1.77
2023-02-19T22:09:11.773Z,1.73
2023-02-19T22:11:38.625Z,1.80
2023-02-19T22:14:05.240Z,1.83
2023-02-19T22:16:32.198Z,2.00
2023-02-19T22:19:00.022Z,1.58
2023-02-19T22:21:32.541Z,1.83
2023-02-19T22:24:00.343Z,1.85
2023-02-19T22:26:31.668Z,2.30
2023-02-19T22:28:59.619Z,2.00
2023-02-19T22:31:27.970Z,2.03
2023-02-19T22:33:56.166Z,1.90
2023-02-19T22:36:28.072Z,2.22
2023-02-19T22:38:55.071Z,2.28
2023-02-19T22:41:22.410Z,1.92
2023-02-19T22:43:49.763Z,1.75
2023-02-19T22:46:21.977Z,2.08
2023-02-19T22:48:48.773Z,1.83
2023-02-19T22:51:18.208Z,2.10
2023-02-19T22:53:53.296Z,1.80
2023-02-19T22:56:22.488Z,1.95
2023-02-19T22:58:49.367Z,2.00
2023-02-19T23:01:16.389Z,1.70
2023-02-19T23:03:58.111Z,2.05
2023-02-19T23:06:27.078Z,2.20
2023-02-19T23:08:55.274Z,1.90
2023-02-19T23:11:24.453Z,1.80
2023-02-19T23:13:51.668Z,1.73
2023-02-19T23:16:18.461Z,1.60
2023-02-19T23:18:45.252Z,1.90
2023-02-19T23:21:13.122Z,2.38
2023-02-19T23:23:43.061Z,1.77
2023-02-19T23:26:09.846Z,2.00
2023-02-19T23:28:36.617Z,1.90
2023-02-19T23:31:03.237Z,1.83
2023-02-19T23:33:29.777Z,1.90
2023-02-19T23:35:56.869Z,2.00
2023-02-19T23:38:23.779Z,1.73
2023-02-19T23:40:50.345Z,1.70
2023-02-19T23:43:17.112Z,1.60
2023-02-19T23:45:44.036Z,1.58
2023-02-19T23:48:10.623Z,1.45
2023-02-19T23:50:37.375Z,1.70
2023-02-19T23:53:04.565Z,1.45
2023-02-19T23:55:31.154Z,1.85
2023-02-19T23:57:57.927Z,1.60
